Time;durP1;ratioP1;P1;durP2;ratioP2;P2;SDS_P1;SDS_P2;PMS_P1;PMS_P2;Temp;Humidity;BMP_temperature;BMP_pressure;BME280_temperature;BME280_humidity;BME280_pressure;Samples;Min_cycle;Max_cycle;Signal;HPM_P1;HPM_P2
2022/03/24 00:00:52;;;;;;;22.35;17.58;;;;;;;11.53;35.28;102366.84;4994138;28;20045;-83
2022/03/24 00:03:19;;;;;;;19.58;16.58;;;;;;;11.51;35.19;102369.56;5007313;28;20061;-83
2022/03/24 00:05:51;;;;;;;19.40;16.65;;;;;;;11.56;35.22;102379.91;4996143;28;20550;-84
2022/03/24 00:08:18;;;;;;;24.05;17.65;;;;;;;10.50;35.07;102205.97;4987641;28;20401;-83
2022/03/24 00:10:44;;;;;;;19.55;16.60;;;;;;;11.47;34.65;102360.09;4987760;28;20482;-83
2022/03/24 00:13:11;;;;;;;22.83;15.77;;;;;;;11.12;35.26;102298.56;5006589;28;20310;-82
2022/03/24 00:15:38;;;;;;;18.08;16.17;;;;;;;11.23;35.27;102322.63;5008518;28;20141;-84
2022/03/24 00:18:05;;;;;;;18.00;15.80;;;;;;;11.48;35.17;102360.94;5008823;28;20414;-83
2022/03/24 00:20:32;;;;;;;19.38;15.40;;;;;;;11.47;35.08;102367.22;5008507;28;20081;-84
2022/03/24 00:22:59;;;;;;;19.02;17.13;;;;;;;11.31;35.33;102346.06;5007008;28;20096;-83
2022/03/24 00:25:26;;;;;;;18.80;16.45;;;;;;;11.44;35.65;102372.75;5007454;28;20630;-82
2022/03/24 00:27:56;;;;;;;19.27;16.80;;;;;;;11.37;34.70;102352.81;5007648;28;20056;-82
2022/03/24 00:30:22;;;;;;;20.23;15.77;;;;;;;11.44;35.31;102365.59;5003584;28;20453;-84
2022/03/24 00:32:49;;;;;;;19.83;16.77;;;;;;;11.42;36.00;102366.66;4988719;28;20100;-84
2022/03/24 00:35:16;;;;;;;17.80;15.77;;;;;;;11.21;35.83;102342.28;4988596;28;20050;-85
2022/03/24 00:37:43;;;;;;;22.85;17.48;;;;;;;10.45;36.05;102219.53;4987875;28;20419;-84
2022/03/24 00:40:16;;;;;;;21.30;17.23;;;;;;;11.30;35.82;102361.16;4987600;28;20496;-84
2022/03/24 00:42:45;;;;;;;21.80;16.83;;;;;;;11.00;35.76;102315.28;4988744;28;20058;-82
2022/03/24 00:45:15;;;;;;;18.92;16.92;;;;;;;10.97;35.87;102315.47;5004017;28;20081;-82
2022/03/24 00:47:42;;;;;;;19.63;16.35;;;;;;;11.24;35.13;102358.91;4987532;28;20457;-83
2022/03/24 00:50:11;;;;;;;22.05;17.00;;;;;;;10.73;35.30;102265.59;4988591;28;20093;-83
2022/03/24 00:52:41;;;;;;;20.50;16.92;;;;;;;10.37;35.46;102205.88;4997520;28;20053;-83
2022/03/24 00:55:14;;;;;;;18.63;16.58;;;;;;;11.22;35.67;102347.53;4992217;28;20056;-84
2022/03/24 00:57:43;;;;;;;18.88;17.08;;;;;;;10.58;35.11;102237.34;4995586;28;20053;-84
2022/03/24 01:00:15;;;;;;;19.73;16.42;;;;;;;10.34;35.01;102195.47;4998666;28;20432;-84
2022/03/24 01:02:51;;;;;;;18.33;16.38;;;;;;;10.53;35.25;102234.97;5006921;28;20100;-83
2022/03/24 01:05:20;;;;;;;18.88;16.98;;;;;;;10.93;36.19;102292.72;4990376;28;20050;-83
2022/03/24 01:07:46;;;;;;;18.17;16.25;;;;;;;10.68;36.21;102262.41;4987504;28;20072;-84
2022/03/24 01:10:16;;;;;;;18.55;16.55;;;;;;;10.69;36.55;102270.25;4988129;28;20149;-85
2022/03/24 01:12:42;;;;;;;20.65;16.45;;;;;;;10.99;36.43;102324.19;4995439;28;20058;-83
2022/03/24 01:15:13;;;;;;;17.52;15.65;;;;;;;11.00;36.89;102329.44;5008901;28;20132;-84
2022/03/24 01:17:40;;;;;;;21.45;16.35;;;;;;;10.91;36.92;102320.22;5006518;28;20303;-84
2022/03/24 01:20:08;;;;;;;19.98;17.20;;;;;;;10.31;36.37;102238.09;5007847;28;20435;-84
2022/03/24 01:22:36;;;;;;;19.92;17.83;;;;;;;10.74;36.46;102293.88;5006694;28;20112;-83
2022/03/24 01:25:03;;;;;;;18.05;16.13;;;;;;;10.73;35.27;102291.28;5008360;28;20128;-84
2022/03/24 01:27:30;;;;;;;21.92;17.65;;;;;;;10.99;35.58;102329.50;4996463;28;20137;-85
2022/03/24 01:29:57;;;;;;;17.85;16.15;;;;;;;10.48;35.71;102232.63;5005461;28;20140;-85
2022/03/24 01:32:26;;;;;;;18.90;16.95;;;;;;;11.06;35.92;102325.53;5007012;28;20586;-84
2022/03/24 01:34:55;;;;;;;20.52;17.20;;;;;;;11.01;35.18;102319.66;5003092;28;20046;-84
2022/03/24 01:37:23;;;;;;;20.25;17.50;;;;;;;11.06;35.56;102330.84;4987574;28;20047;-84
2022/03/24 01:39:51;;;;;;;21.65;17.55;;;;;;;11.06;35.61;102331.69;4987611;28;20137;-84
2022/03/24 01:42:19;;;;;;;19.65;16.05;;;;;;;10.94;35.65;102307.69;4986830;28;20420;-85
2022/03/24 01:44:47;;;;;;;18.58;16.30;;;;;;;10.93;35.84;102304.19;5006157;28;20054;-83
2022/03/24 01:47:15;;;;;;;20.98;17.15;;;;;;;10.90;35.36;102305.25;5006457;28;20046;-83
2022/03/24 01:49:47;;;;;;;19.25;15.70;;;;;;;10.62;35.53;102249.47;5006572;28;20586;-83
2022/03/24 01:52:15;;;;;;;18.50;16.58;;;;;;;10.85;34.71;102275.47;5006456;28;20062;-84
2022/03/24 01:54:47;;;;;;;19.17;17.00;;;;;;;11.09;34.30;102320.00;5006292;28;20050;-82
2022/03/24 01:57:17;;;;;;;20.67;16.63;;;;;;;11.12;34.94;102327.81;5006568;28;20426;-83
2022/03/24 01:59:44;;;;;;;17.98;16.08;;;;;;;11.09;35.17;102320.00;5007450;28;20099;-83
2022/03/24 02:02:11;;;;;;;18.35;16.42;;;;;;;11.01;35.35;102303.69;4987569;28;20054;-83
2022/03/24 02:04:38;;;;;;;18.35;16.42;;;;;;;10.96;35.23;102296.03;4988034;28;20141;-83
2022/03/24 02:07:06;;;;;;;18.92;16.08;;;;;;;10.99;35.46;102297.63;4986375;28;20579;-83
2022/03/24 02:09:33;;;;;;;18.98;15.93;;;;;;;10.64;35.29;102245.78;4988342;28;20435;-83
2022/03/24 02:12:05;;;;;;;19.63;16.67;;;;;;;10.78;34.99;102274.13;4990549;28;20057;-84
2022/03/24 02:14:31;;;;;;;20.88;16.95;;;;;;;10.82;35.28;102282.75;4991401;28;20046;-83
2022/03/24 02:16:58;;;;;;;17.08;15.23;;;;;;;11.04;35.35;102311.47;5011497;28;20052;-84
2022/03/24 02:19:26;;;;;;;17.75;15.88;;;;;;;10.72;35.27;102263.88;5001263;28;20050;-83
2022/03/24 02:21:55;;;;;;;17.38;15.65;;;;;;;10.27;35.54;102183.50;4995267;28;20042;-85
2022/03/24 02:24:26;;;;;;;20.35;15.95;;;;;;;10.68;35.37;102251.78;4990109;28;20206;-84
2022/03/24 02:26:58;;;;;;;17.77;15.60;;;;;;;10.91;35.22;102296.31;4970817;28;20557;-83
2022/03/24 02:29:25;;;;;;;18.98;16.58;;;;;;;10.28;35.56;102190.53;4993169;28;20086;-85
2022/03/24 02:31:53;;;;;;;21.63;16.52;;;;;;;10.80;35.61;102282.88;4980197;28;20057;-85
2022/03/24 02:37:11;;;;;;;18.33;16.40;;;;;;;10.90;35.98;102310.56;5012179;28;20587;-84
2022/03/24 02:39:41;;;;;;;20.83;16.95;;;;;;;10.85;35.45;102299.38;5009776;28;20145;-85
2022/03/24 02:42:14;;;;;;;18.20;15.45;;;;;;;10.87;36.37;102308.09;5010986;28;20061;-83
2022/03/24 02:44:47;;;;;;;19.08;16.60;;;;;;;10.36;35.59;102224.56;5011106;28;20050;-83
2022/03/24 02:47:14;;;;;;;;;;;;;;;10.47;36.07;102246.00;5011666;28;20060;-84
2022/03/24 02:49:42;;;;;;;18.33;16.25;;;;;;;10.81;35.87;102304.97;5017223;28;20143;-84
2022/03/24 02:52:09;;;;;;;18.25;15.23;;;;;;;10.78;36.26;102292.72;5005484;28;20046;-84
2022/03/24 02:54:36;;;;;;;18.42;15.88;;;;;;;10.74;35.43;102288.56;5002543;28;20296;-83
2022/03/24 02:57:04;;;;;;;17.83;16.13;;;;;;;10.33;35.75;102225.59;4998339;28;20149;-83
2022/03/24 02:59:31;;;;;;;17.60;15.75;;;;;;;10.68;35.17;102268.56;4990125;28;20049;-82
2022/03/24 03:02:00;;;;;;;18.15;14.90;;;;;;;10.79;35.71;102310.38;4989490;28;20112;-83
2022/03/24 03:04:38;;;;;;;16.55;14.88;;;;;;;10.75;35.99;102298.22;4989617;28;20566;-83
2022/03/24 03:07:07;;;;;;;17.63;15.82;;;;;;;10.54;36.93;102275.69;4990222;28;20058;-85
2022/03/24 03:09:35;;;;;;;18.77;16.30;;;;;;;10.66;36.24;102310.28;4990223;28;20419;-83
2022/03/24 03:12:02;;;;;;;17.58;15.88;;;;;;;10.12;36.40;102226.88;4990592;28;20452;-83
2022/03/24 03:14:31;;;;;;;17.60;15.68;;;;;;;10.54;36.43;102291.63;4992057;28;20112;-84
2022/03/24 03:16:59;;;;;;;19.48;16.65;;;;;;;10.52;36.57;102301.47;4990782;28;20129;-84
2022/03/24 03:19:27;;;;;;;17.35;15.63;;;;;;;10.52;36.24;102294.34;4990463;28;20048;-83
2022/03/24 03:21:53;;;;;;;17.55;15.65;;;;;;;9.59;36.21;102147.00;4989708;28;20050;-85
2022/03/24 03:24:23;;;;;;;17.85;15.05;;;;;;;10.05;36.36;102221.13;4991338;28;20060;-84
2022/03/24 03:26:52;;;;;;;17.85;16.13;;;;;;;10.15;36.40;102240.00;5009215;28;20538;-82
2022/03/24 03:29:22;;;;;;;17.33;15.50;;;;;;;10.46;36.23;102295.59;5009306;28;20518;-82
2022/03/24 03:31:49;;;;;;;20.25;15.70;;;;;;;9.59;36.65;102152.28;5008717;28;20042;-83
2022/03/24 03:34:15;;;;;;;17.63;15.07;;;;;;;10.37;36.35;102279.38;5009781;28;20100;-83
2022/03/24 03:36:42;;;;;;;17.90;16.10;;;;;;;10.51;36.02;102302.41;5008967;28;20149;-85
2022/03/24 03:39:09;;;;;;;18.88;16.92;;;;;;;10.36;36.02;102288.28;5008805;28;20141;-83
2022/03/24 03:41:37;;;;;;;17.48;15.73;;;;;;;9.54;35.80;102144.59;5008316;28;20137;-83
2022/03/24 03:44:04;;;;;;;17.48;15.55;;;;;;;10.42;36.09;102294.06;5008525;28;20050;-83
2022/03/24 03:46:31;;;;;;;17.05;15.30;;;;;;;10.09;36.02;102246.50;5008478;28;20096;-83
2022/03/24 03:48:58;;;;;;;17.80;14.85;;;;;;;10.40;35.69;102284.50;5008725;28;20052;-83
2022/03/24 03:51:27;;;;;;;17.35;14.98;;;;;;;10.57;35.43;102318.81;5008929;28;20153;-84
2022/03/24 03:53:54;;;;;;;19.33;16.60;;;;;;;10.38;35.62;102281.91;5008264;28;20151;-83
2022/03/24 03:56:21;;;;;;;16.83;14.93;;;;;;;10.59;35.83;102308.97;5009222;28;20084;-84
2022/03/24 03:58:48;;;;;;;18.17;16.23;;;;;;;10.60;35.27;102317.78;5008035;28;20073;-84
2022/03/24 04:01:15;;;;;;;18.00;16.15;;;;;;;9.84;35.65;102194.09;5009349;28;20487;-83
2022/03/24 04:03:42;;;;;;;18.80;15.63;;;;;;;10.52;36.40;102306.78;5007557;28;20054;-84
2022/03/24 04:06:12;;;;;;;18.42;15.68;;;;;;;10.47;35.87;102313.22;5007693;28;20056;-84
2022/03/24 04:08:41;;;;;;;16.98;15.05;;;;;;;10.15;36.13;102264.72;5006864;28;20523;-83
2022/03/24 04:11:09;;;;;;;23.20;15.60;;;;;;;10.42;36.42;102310.00;5007703;28;20060;-83
2022/03/24 04:13:37;;;;;;;18.40;15.65;;;;;;;10.15;36.73;102279.78;5008015;28;20060;-83
2022/03/24 04:16:04;;;;;;;21.60;15.45;;;;;;;10.24;37.31;102301.31;5008032;28;20129;-83
2022/03/24 04:18:31;;;;;;;19.67;16.35;;;;;;;10.30;36.75;102308.09;5009840;28;20104;-83
2022/03/24 04:20:57;;;;;;;16.73;14.98;;;;;;;10.30;36.73;102305.44;5009578;28;20079;-82
2022/03/24 04:23:25;;;;;;;19.80;16.45;;;;;;;9.73;36.92;102215.94;5008042;28;20054;-85
2022/03/24 04:25:51;;;;;;;19.42;15.55;;;;;;;9.99;36.78;102262.13;4993972;28;20076;-83
2022/03/24 04:28:18;;;;;;;17.63;15.77;;;;;;;10.30;36.79;102305.44;4989268;28;20064;-84
2022/03/24 04:30:45;;;;;;;17.05;15.25;;;;;;;10.24;36.25;102297.78;4989232;28;20177;-84
2022/03/24 04:33:12;;;;;;;16.40;14.52;;;;;;;10.13;36.39;102287.00;4987076;28;20054;-84
2022/03/24 04:35:38;;;;;;;17.80;14.73;;;;;;;10.17;36.52;102294.69;4988001;28;20619;-84
2022/03/24 04:38:07;;;;;;;18.52;15.48;;;;;;;9.98;36.33;102268.41;4989525;28;20086;-84
2022/03/24 04:40:34;;;;;;;17.08;15.30;;;;;;;10.22;36.07;102297.06;4989638;28;20133;-83
2022/03/24 04:43:00;;;;;;;17.67;15.80;;;;;;;9.83;36.83;102243.63;4993696;28;20132;-83
2022/03/24 04:45:29;;;;;;;20.70;16.20;;;;;;;10.01;36.44;102284.13;4988640;28;20050;-83
2022/03/24 04:47:56;;;;;;;20.05;16.83;;;;;;;10.19;36.98;102314.00;4986750;28;20611;-84
2022/03/24 04:50:22;;;;;;;18.48;15.38;;;;;;;10.09;36.51;102285.47;4986928;28;20042;-83
2022/03/24 04:52:49;;;;;;;19.27;16.85;;;;;;;10.21;36.63;102313.91;5003532;28;20050;-83
2022/03/24 04:55:17;;;;;;;20.58;15.82;;;;;;;10.14;36.91;102301.97;4986903;28;20474;-85
2022/03/24 04:57:44;;;;;;;19.55;17.00;;;;;;;10.23;36.71;102320.84;5003322;28;20050;-85
2022/03/24 05:00:11;;;;;;;21.30;16.23;;;;;;;9.27;36.68;102163.00;4987126;28;20050;-85
2022/03/24 05:02:39;;;;;;;18.10;15.40;;;;;;;9.07;35.99;102129.69;4987018;28;20062;-84
2022/03/24 05:05:06;;;;;;;16.20;14.50;;;;;;;10.21;36.41;102305.94;4989221;28;20139;-84
2022/03/24 05:07:33;;;;;;;19.50;14.63;;;;;;;10.04;36.42;102281.28;4987759;28;20490;-84
2022/03/24 05:09:59;;;;;;;16.92;15.23;;;;;;;10.08;36.35;102283.75;4987062;28;20144;-84
2022/03/24 05:12:26;;;;;;;18.20;14.80;;;;;;;10.21;36.08;102319.22;4986878;28;20046;-83
2022/03/24 05:14:53;;;;;;;19.58;15.13;;;;;;;10.24;35.94;102319.03;5003429;28;20146;-84
2022/03/24 05:17:19;;;;;;;18.27;14.32;;;;;;;10.28;36.23;102317.94;4987998;28;20576;-83
2022/03/24 05:19:48;;;;;;;21.15;16.13;;;;;;;10.27;36.19;102310.91;4986873;28;20400;-83
2022/03/24 05:22:16;;;;;;;16.65;15.00;;;;;;;10.23;36.49;102322.66;5002648;28;20050;-84
2022/03/24 05:24:44;;;;;;;17.08;14.70;;;;;;;10.11;36.43;102304.81;4992051;28;20547;-83
2022/03/24 05:27:11;;;;;;;23.13;16.58;;;;;;;9.76;36.72;102252.06;5007019;28;20496;-84
2022/03/24 05:29:38;;;;;;;19.15;15.63;;;;;;;10.17;36.46;102330.97;5006852;28;20108;-83
2022/03/24 05:32:05;;;;;;;20.65;14.88;;;;;;;10.02;36.76;102296.47;5005471;28;20168;-83
2022/03/24 05:34:32;;;;;;;19.58;14.77;;;;;;;10.22;36.85;102332.41;5001233;28;20058;-83
2022/03/24 05:37:00;;;;;;;18.17;15.75;;;;;;;10.22;36.77;102323.59;5001388;28;20505;-84
2022/03/24 05:39:26;;;;;;;15.88;14.27;;;;;;;10.22;36.30;102323.59;4987062;28;20054;-85
2022/03/24 05:41:53;;;;;;;17.73;14.85;;;;;;;10.15;36.53;102306.34;4987173;28;20080;-84
2022/03/24 05:44:20;;;;;;;21.70;15.13;;;;;;;9.50;36.47;102190.78;5004049;28;20531;-85
2022/03/24 05:46:47;;;;;;;16.17;14.48;;;;;;;10.27;36.65;102313.56;4989833;28;20137;-82
2022/03/24 05:49:17;;;;;;;16.88;15.07;;;;;;;10.26;36.64;102315.34;5005620;28;20355;-84
2022/03/24 05:51:44;;;;;;;17.83;15.02;;;;;;;10.35;36.73;102324.59;4991580;28;20488;-83
2022/03/24 05:54:13;;;;;;;17.50;15.07;;;;;;;10.44;36.66;102339.97;4989846;28;20081;-83
2022/03/24 05:56:44;;;;;;;19.17;14.52;;;;;;;10.45;36.36;102339.00;4990598;28;20133;-84
2022/03/24 05:59:10;;;;;;;17.38;15.43;;;;;;;10.07;36.76;102272.28;4990094;28;20054;-84
2022/03/24 06:01:39;;;;;;;16.20;14.50;;;;;;;10.52;36.60;102338.66;4989374;28;20141;-84
2022/03/24 06:04:07;;;;;;;17.02;15.10;;;;;;;10.17;36.16;102278.75;4988382;28;20129;-83
2022/03/24 06:06:35;;;;;;;19.65;15.73;;;;;;;10.56;36.52;102337.50;4988452;28;20113;-83
2022/03/24 06:09:05;;;;;;;22.13;15.43;;;;;;;10.65;36.15;102352.88;4988010;28;20054;-84
2022/03/24 06:11:35;;;;;;;16.45;13.98;;;;;;;10.20;36.24;102257.34;4988834;28;20343;-84
2022/03/24 06:14:12;;;;;;;15.30;13.63;;;;;;;10.75;36.76;102340.72;4988227;28;20562;-83
2022/03/24 06:16:40;;;;;;;18.45;14.50;;;;;;;10.59;36.38;102301.00;4989028;28;20356;-82
2022/03/24 06:19:09;;;;;;;20.42;15.48;;;;;;;10.55;36.64;102290.66;4989410;28;20109;-83
2022/03/24 06:21:38;;;;;;;18.65;15.43;;;;;;;10.96;36.10;102343.84;4988069;28;20108;-83
2022/03/24 06:24:06;;;;;;;18.00;15.05;;;;;;;10.91;35.70;102322.88;4987784;28;20076;-83
2022/03/24 06:26:33;;;;;;;18.67;14.43;;;;;;;11.09;35.99;102342.16;5007590;28;20057;-83
2022/03/24 06:29:01;;;;;;;16.55;14.85;;;;;;;11.19;35.21;102334.44;5012324;28;20042;-82
2022/03/24 06:31:29;;;;;;;18.15;14.93;;;;;;;11.13;34.93;102303.75;5009635;28;20258;-83
2022/03/24 06:33:57;;;;;;;19.65;15.60;;;;;;;10.97;34.54;102272.94;5008252;28;20559;-83
2022/03/24 06:36:23;;;;;;;20.92;14.55;;;;;;;11.42;34.64;102348.91;5015943;28;20046;-83
2022/03/24 06:38:50;;;;;;;19.45;15.02;;;;;;;10.65;34.65;102204.13;5017500;28;20050;-83
2022/03/24 06:41:17;;;;;;;18.13;14.50;;;;;;;11.55;34.04;102338.31;5011531;28;20496;-83
2022/03/24 06:43:43;;;;;;;17.73;15.18;;;;;;;11.11;34.23;102260.47;4992172;28;20046;-84
2022/03/24 06:46:10;;;;;;;18.52;15.00;;;;;;;11.41;34.42;102294.00;4990210;28;20570;-82
2022/03/24 06:48:37;;;;;;;18.55;15.38;;;;;;;11.57;34.26;102315.13;4992417;28;20042;-83
2022/03/24 06:51:04;;;;;;;22.02;15.25;;;;;;;11.21;34.07;102252.75;4996134;28;20050;-84
2022/03/24 06:53:32;;;;;;;17.60;15.85;;;;;;;11.68;34.03;102319.75;4990968;28;20054;-83
2022/03/24 06:55:59;;;;;;;19.35;14.32;;;;;;;11.56;33.83;102294.81;4987355;28;20511;-84
2022/03/24 06:58:26;;;;;;;16.73;15.00;;;;;;;11.99;33.27;102353.19;4987424;28;20093;-84
2022/03/24 07:00:52;;;;;;;16.45;14.75;;;;;;;12.05;33.96;102351.91;4988646;28;20130;-83
2022/03/24 07:03:19;;;;;;;17.08;15.38;;;;;;;12.16;33.51;102350.22;4988751;28;20460;-82
2022/03/24 07:05:46;;;;;;;19.63;14.25;;;;;;;12.22;33.70;102353.44;4989088;28;20054;-84
2022/03/24 07:08:13;;;;;;;17.75;15.20;;;;;;;12.13;33.83;102323.78;4987519;28;20080;-83
2022/03/24 07:10:46;;;;;;;18.92;14.85;;;;;;;12.04;34.15;102305.81;4987005;28;20327;-84
2022/03/24 07:13:19;;;;;;;17.13;15.27;;;;;;;12.45;33.96;102359.84;4988182;28;20058;-84
2022/03/24 07:15:46;;;;;;;17.20;15.38;;;;;;;12.35;32.48;102332.97;4989236;28;20160;-85
2022/03/24 07:18:15;;;;;;;17.90;15.18;;;;;;;12.18;32.51;102284.44;4990571;28;20057;-85
2022/03/24 07:20:42;;;;;;;16.15;14.43;;;;;;;12.22;32.71;102274.41;4989115;28;20058;-85
2022/03/24 07:23:09;;;;;;;20.83;15.77;;;;;;;12.67;32.53;102333.44;4989644;28;20141;-84
2022/03/24 07:25:39;;;;;;;17.38;15.48;;;;;;;12.32;32.46;102269.28;4999544;28;20532;-84
2022/03/24 07:28:07;;;;;;;18.33;15.73;;;;;;;12.74;32.28;102325.81;5006912;28;20057;-84
2022/03/24 07:30:34;;;;;;;20.52;16.45;;;;;;;12.96;31.71;102352.69;4998017;28;20138;-83
2022/03/24 07:33:02;;;;;;;23.23;15.35;;;;;;;12.91;31.88;102338.81;4989910;28;20054;-83
2022/03/24 07:35:31;;;;;;;16.45;14.65;;;;;;;12.97;32.52;102337.53;4988368;28;20141;-83
2022/03/24 07:37:58;;;;;;;20.48;15.77;;;;;;;12.67;32.15;102273.94;4988981;28;20566;-84
2022/03/24 07:40:25;;;;;;;16.60;14.88;;;;;;;13.06;31.69;102326.22;5002229;28;20717;-84
2022/03/24 07:42:53;;;;;;;20.83;16.73;;;;;;;13.35;31.79;102349.94;4988276;28;20094;-84
2022/03/24 07:45:22;;;;;;;18.45;16.40;;;;;;;13.32;31.88;102337.66;4988256;28;20129;-83
2022/03/24 07:48:09;;;;;;;20.73;16.55;;;;;;;13.51;31.51;102355.84;4988072;28;20642;-84
2022/03/24 07:50:38;;;;;;;22.65;17.40;;;;;;;12.75;31.19;102208.47;4988049;28;20058;-83
2022/03/24 07:53:28;;;;;;;17.33;15.40;;;;;;;13.62;31.30;102347.06;4988227;28;20100;-82
2022/03/24 07:55:57;;;;;;;19.67;15.52;;;;;;;13.69;31.38;102353.66;4982677;28;20065;-83
2022/03/24 07:58:24;;;;;;;17.77;16.02;;;;;;;13.79;30.76;102367.16;4987662;28;20574;-84
2022/03/24 08:00:50;;;;;;;17.70;15.85;;;;;;;12.82;30.84;102195.56;4989205;28;20082;-82
2022/03/24 08:03:19;;;;;;;18.73;16.25;;;;;;;13.17;30.78;102246.28;4987479;28;20062;-83
2022/03/24 08:05:47;;;;;;;25.52;16.92;;;;;;;13.96;31.07;102363.25;4989117;28;20057;-84
2022/03/24 08:08:15;;;;;;;19.88;16.48;;;;;;;14.05;30.12;102335.81;4987490;28;20046;-83
2022/03/24 08:10:46;;;;;;;22.80;17.40;;;;;;;13.99;30.18;102328.28;4987542;28;20046;-83
2022/03/24 08:13:15;;;;;;;21.13;15.90;;;;;;;13.12;29.75;102167.59;4987502;28;20480;-83
2022/03/24 08:15:42;;;;;;;16.88;15.15;;;;;;;14.10;29.20;102321.16;5004271;28;20066;-83
2022/03/24 08:18:10;;;;;;;17.10;14.80;;;;;;;14.37;29.20;102364.53;4988449;28;20560;-83
2022/03/24 08:20:38;;;;;;;17.77;15.13;;;;;;;14.35;28.88;102339.78;4988195;28;20134;-83
2022/03/24 08:23:08;;;;;;;19.00;16.52;;;;;;;14.61;29.03;102372.50;4988131;28;20484;-82
2022/03/24 08:25:36;;;;;;;19.30;15.73;;;;;;;14.06;29.12;102284.97;4989623;28;20511;-83
2022/03/24 08:28:03;;;;;;;17.33;15.52;;;;;;;14.23;28.58;102288.16;5004004;28;20070;-83
2022/03/24 08:30:30;;;;;;;16.48;14.88;;;;;;;14.51;28.57;102324.25;4988129;28;20058;-83
2022/03/24 08:32:57;;;;;;;16.77;15.13;;;;;;;14.81;28.54;102368.31;4989479;28;20050;-84
2022/03/24 08:35:24;;;;;;;16.77;15.07;;;;;;;14.28;28.94;102286.81;5003649;28;20082;-82
2022/03/24 08:37:51;;;;;;;19.50;15.70;;;;;;;14.73;29.09;102367.06;4986686;28;20091;-82
2022/03/24 08:40:18;;;;;;;19.95;15.95;;;;;;;14.65;29.53;102356.13;4988848;28;20146;-83
2022/03/24 08:42:44;;;;;;;17.55;15.15;;;;;;;14.75;28.77;102370.47;4989229;28;20051;-83
2022/03/24 08:45:13;;;;;;;18.92;16.65;;;;;;;14.72;29.29;102362.69;4988343;28;20074;-82
2022/03/24 08:47:40;;;;;;;18.25;15.38;;;;;;;14.82;29.23;102372.66;4989000;28;20502;-84
2022/03/24 08:50:10;;;;;;;19.98;14.93;;;;;;;14.89;28.71;102365.84;4989326;28;20050;-84
2022/03/24 08:52:37;;;;;;;17.23;15.38;;;;;;;15.14;28.06;102373.59;4994879;28;20286;-84
2022/03/24 08:55:05;;;;;;;17.98;15.32;;;;;;;14.93;27.78;102346.78;4994973;28;20050;-84
2022/03/24 08:57:33;;;;;;;18.15;16.25;;;;;;;15.06;27.55;102356.50;4989909;28;20493;-84
2022/03/24 09:00:03;;;;;;;17.58;15.77;;;;;;;14.29;27.91;102229.75;4987425;28;20169;-83
2022/03/24 09:02:30;;;;;;;17.63;15.35;;;;;;;15.28;27.72;102375.19;4986751;28;20062;-83
2022/03/24 09:04:57;;;;;;;19.52;15.15;;;;;;;15.34;27.58;102371.16;4989601;28;20065;-84
2022/03/24 09:07:40;;;;;;;16.80;15.13;;;;;;;14.95;27.64;102295.81;4992471;28;20057;-83
2022/03/24 09:10:10;;;;;;;18.02;16.15;;;;;;;15.37;27.33;102355.72;4991909;28;20046;-85
2022/03/24 09:12:39;;;;;;;16.55;14.98;;;;;;;15.56;27.54;102365.75;4989539;28;20050;-84
2022/03/24 09:15:09;;;;;;;18.17;16.38;;;;;;;15.23;27.48;102315.00;4987037;28;20074;-84
2022/03/24 09:17:39;;;;;;;16.42;14.73;;;;;;;15.62;27.67;102379.63;4986839;28;20046;-85
2022/03/24 09:20:09;;;;;;;17.92;15.10;;;;;;;15.10;27.90;102278.56;4986602;28;20085;-85
2022/03/24 09:22:43;;;;;;;17.77;15.45;;;;;;;15.64;28.28;102350.91;4986702;28;20120;-85
2022/03/24 09:25:12;;;;;;;18.17;15.40;;;;;;;15.52;28.16;102315.28;4986684;28;20050;-83
2022/03/24 09:27:40;;;;;;;18.33;16.38;;;;;;;15.92;28.19;102350.34;4986681;28;20136;-84
2022/03/24 09:30:08;;;;;;;19.23;16.38;;;;;;;15.73;28.02;102280.56;5002851;28;20080;-85
2022/03/24 09:32:35;;;;;;;19.73;16.85;;;;;;;16.41;27.39;102364.06;4986887;28;20141;-84
2022/03/24 09:35:04;;;;;;;17.67;15.77;;;;;;;16.61;27.50;102378.44;5003584;28;20061;-84
2022/03/24 09:37:33;;;;;;;19.38;16.58;;;;;;;16.64;27.88;102362.06;5003000;28;20120;-85
2022/03/24 09:40:01;;;;;;;20.40;18.10;;;;;;;16.95;27.16;102368.31;4986893;28;20137;-84
2022/03/24 09:42:28;;;;;;;17.95;16.05;;;;;;;16.36;27.08;102251.91;4986540;28;20223;-84
2022/03/24 09:45:02;;;;;;;18.90;17.05;;;;;;;17.12;27.61;102372.19;5003016;28;20145;-84
2022/03/24 09:47:30;;;;;;;24.95;17.10;;;;;;;17.12;27.63;102353.41;4986503;28;20146;-85
2022/03/24 09:49:58;;;;;;;19.55;17.50;;;;;;;17.37;27.29;102349.34;4986785;28;20128;-85
2022/03/24 09:52:26;;;;;;;19.08;17.05;;;;;;;17.52;27.60;102349.81;4986345;28;20064;-83
2022/03/24 09:54:54;;;;;;;19.52;17.63;;;;;;;17.72;26.89;102345.31;4988318;28;20058;-84
2022/03/24 09:57:22;;;;;;;21.27;17.77;;;;;;;17.77;27.16;102339.50;4988359;28;20050;-85
2022/03/24 09:59:49;;;;;;;17.75;15.95;;;;;;;17.79;27.51;102324.09;5002783;28;20148;-83
2022/03/24 10:02:16;;;;;;;19.15;17.25;;;;;;;18.25;26.54;102365.50;4984049;28;20302;-84
2022/03/24 10:04:50;;;;;;;19.10;17.10;;;;;;;17.11;26.57;102150.44;4999703;28;20439;-84
2022/03/24 10:07:25;;;;;;;20.08;18.13;;;;;;;18.55;26.13;102356.41;5001643;28;20428;-83
2022/03/24 10:09:55;;;;;;;20.63;18.38;;;;;;;18.67;25.54;102357.06;4987729;28;20050;-84
2022/03/24 10:12:37;;;;;;;21.63;17.27;;;;;;;18.72;25.74;102346.72;4986396;28;20043;-84
2022/03/24 10:15:12;;;;;;;23.23;18.23;;;;;;;18.90;25.15;102344.94;4986087;28;20400;-84
2022/03/24 10:17:40;;;;;;;22.15;18.92;;;;;;;19.05;25.29;102352.53;4987074;28;20058;-84
2022/03/24 10:20:15;;;;;;;20.63;18.50;;;;;;;18.57;25.44;102258.44;5001858;28;20146;-84
2022/03/24 10:23:00;;;;;;;21.17;17.70;;;;;;;18.89;25.01;102273.31;4984310;28;20046;-84
2022/03/24 10:25:33;;;;;;;20.42;18.20;;;;;;;19.43;24.34;102319.97;4994909;28;20394;-83
2022/03/24 10:28:07;;;;;;;25.38;18.17;;;;;;;19.63;23.84;102333.31;4999436;28;20129;-84
2022/03/24 10:30:49;;;;;;;19.75;17.02;;;;;;;19.75;24.55;102326.72;4984725;28;20054;-85
2022/03/24 10:33:40;;;;;;;21.30;16.95;;;;;;;19.97;23.50;102311.06;4989048;28;20050;-85
2022/03/24 10:36:12;;;;;;;18.35;16.48;;;;;;;19.07;23.49;102160.28;4990406;28;20579;-84
2022/03/24 10:38:42;;;;;;;17.70;15.38;;;;;;;20.01;23.04;102282.78;4992469;28;20057;-84
2022/03/24 10:41:21;;;;;;;17.58;15.75;;;;;;;20.04;23.16;102252.81;4998779;28;20078;-85
2022/03/24 10:43:50;;;;;;;20.75;16.60;;;;;;;20.64;22.31;102314.88;5003778;28;20053;-85
2022/03/24 10:46:29;;;;;;;16.77;14.40;;;;;;;20.76;22.31;102312.75;5003854;28;20042;-85
2022/03/24 10:48:56;;;;;;;18.42;16.45;;;;;;;20.57;22.49;102262.56;5011865;28;20034;-85
2022/03/24 10:51:27;;;;;;;20.55;17.15;;;;;;;21.02;22.37;102307.28;5012232;28;20081;-85
2022/03/24 10:54:10;;;;;;;18.00;16.23;;;;;;;21.03;21.66;102281.97;5000817;28;20070;-85
2022/03/24 10:56:43;;;;;;;19.13;15.25;;;;;;;21.25;22.10;102280.50;5004680;28;20050;-85
2022/03/24 10:59:10;;;;;;;17.35;15.57;;;;;;;21.08;21.95;102233.72;5004579;28;20057;-85
2022/03/24 11:01:38;;;;;;;16.77;15.18;;;;;;;21.55;21.39;102287.16;4990868;28;20480;-85
2022/03/24 11:04:05;;;;;;;16.88;15.27;;;;;;;21.63;21.46;102272.81;4988309;28;20552;-85
2022/03/24 11:06:31;;;;;;;21.33;17.63;;;;;;;21.47;21.45;102219.59;4988081;28;20485;-84
2022/03/24 11:09:00;;;;;;;18.17;16.48;;;;;;;21.63;21.19;102212.50;4987690;28;20137;-86
2022/03/24 11:11:28;;;;;;;17.95;16.20;;;;;;;22.00;21.67;102267.88;4988202;28;20047;-86
2022/03/24 11:13:58;;;;;;;17.42;15.45;;;;;;;22.16;21.32;102257.00;4990523;28;20047;-85
2022/03/24 11:16:30;;;;;;;17.67;16.08;;;;;;;22.51;21.24;102279.28;4988793;28;20121;-85
2022/03/24 11:18:59;;;;;;;18.35;16.45;;;;;;;22.43;21.09;102231.44;5004852;28;20112;-86